Time;durP1;ratioP1;P1;durP2;ratioP2;P2;SDS_P1;SDS_P2;PMS_P1;PMS_P2;Temp;Humidity;BMP_temperature;BMP_pressure;BME280_temperature;BME280_humidity;BME280_pressure;Samples;Min_cycle;Max_cycle;Signal;HPM_P1;HPM_P2
2022/08/17 00:01:36;;;;;;;5.60;5.20;;;;;;;-148.82;100.00;60434.72;4936977;28;20244;-63
2022/08/17 00:04:21;;;;;;;5.43;4.97;;;;;;;-148.82;100.00;60434.72;4984275;28;20205;-61
2022/08/17 00:06:50;;;;;;;5.97;5.53;;;;;;;-148.82;100.00;60434.72;4982104;28;20302;-64
2022/08/17 00:09:18;;;;;;;5.70;5.30;;;;;;;-148.82;100.00;60434.72;4989224;28;20268;-60
2022/08/17 00:11:48;;;;;;;5.77;5.33;;;;;;;-148.82;100.00;60434.72;4987658;28;20616;-64
2022/08/17 00:14:36;;;;;;;5.67;5.27;;;;;;;-148.82;100.00;60434.72;4984221;28;20373;-62
2022/08/17 00:17:05;;;;;;;6.30;5.90;;;;;;;-148.82;100.00;60434.72;4935604;28;20260;-62
2022/08/17 00:19:35;;;;;;;5.97;5.50;;;;;;;-148.82;100.00;60434.72;4978397;28;20233;-62
2022/08/17 00:22:05;;;;;;;5.80;5.37;;;;;;;-148.82;100.00;60434.72;4987045;28;20259;-60
2022/08/17 00:24:54;;;;;;;6.37;5.90;;;;;;;-148.82;100.00;60434.72;4988296;28;20919;-59
2022/08/17 00:27:22;;;;;;;6.70;6.10;;;;;;;-148.82;100.00;60434.72;4985986;28;20282;-60
2022/08/17 00:29:50;;;;;;;7.00;6.37;;;;;;;-148.82;100.00;60434.72;4983073;28;20275;-57
2022/08/17 00:32:19;;;;;;;7.10;6.60;;;;;;;-148.82;100.00;60434.72;4938725;28;20761;-60
2022/08/17 00:35:11;;;;;;;7.13;6.50;;;;;;;-148.82;100.00;60434.72;4985332;28;20766;-60
2022/08/17 00:37:39;;;;;;;6.30;5.90;;;;;;;-148.82;100.00;60434.72;4984283;28;20902;-63
2022/08/17 00:40:10;;;;;;;6.50;5.90;;;;;;;-148.82;100.00;60434.72;4991064;28;20209;-63
2022/08/17 00:42:39;;;;;;;7.23;6.57;;;;;;;-148.82;100.00;60434.72;4984280;28;20918;-64
2022/08/17 00:45:09;;;;;;;7.27;6.67;;;;;;;-148.82;100.00;60434.72;4991173;28;20263;-62
2022/08/17 00:47:37;;;;;;;6.47;5.97;;;;;;;-148.82;100.00;60434.72;4940117;28;21662;-64
2022/08/17 00:50:09;;;;;;;6.60;6.10;;;;;;;-148.82;100.00;60434.72;4988976;28;20266;-64
2022/08/17 00:52:40;;;;;;;6.83;6.23;;;;;;;-148.82;100.00;60434.72;4983674;28;20236;-64
2022/08/17 00:55:09;;;;;;;6.73;6.20;;;;;;;-148.82;100.00;60434.72;4989781;28;20213;-62
2022/08/17 00:57:41;;;;;;;6.87;6.27;;;;;;;-148.82;100.00;60434.72;4985695;28;20461;-65
2022/08/17 01:00:13;;;;;;;6.77;6.27;;;;;;;-148.82;100.00;60434.72;4989872;28;20213;-60
2022/08/17 01:02:44;;;;;;;6.37;5.87;;;;;;;-148.82;100.00;60434.72;4983281;28;20911;-63
2022/08/17 01:05:17;;;;;;;6.33;5.90;;;;;;;-148.82;100.00;60434.72;4932826;28;20213;-57
2022/08/17 01:07:47;;;;;;;6.63;6.23;;;;;;;-148.82;100.00;60434.72;4988341;28;20830;-61
2022/08/17 01:10:16;;;;;;;6.73;6.23;;;;;;;-148.82;100.00;60434.72;4981390;28;20263;-56
2022/08/17 01:13:05;;;;;;;7.47;6.87;;;;;;;-148.82;100.00;60434.72;4983490;28;20794;-61
2022/08/17 01:15:37;;;;;;;7.17;6.57;;;;;;;-148.82;100.00;60434.72;4981215;28;20209;-64
2022/08/17 01:18:05;;;;;;;7.33;6.73;;;;;;;-148.82;100.00;60434.72;4992427;28;20315;-61
2022/08/17 01:20:39;;;;;;;7.20;6.70;;;;;;;-148.82;100.00;60434.72;4939062;28;20216;-62
2022/08/17 01:23:18;;;;;;;7.60;6.90;;;;;;;-148.82;100.00;60434.72;4935007;28;20601;-62
2022/08/17 01:25:50;;;;;;;7.60;6.93;;;;;;;-148.82;100.00;60434.72;4987885;28;20212;-58
2022/08/17 01:28:18;;;;;;;7.73;7.00;;;;;;;-148.82;100.00;60434.72;4984110;28;20316;-63
2022/08/17 01:31:08;;;;;;;8.40;7.67;;;;;;;-148.82;100.00;60434.72;4981395;28;20821;-63
2022/08/17 01:33:36;;;;;;;7.73;7.13;;;;;;;-148.82;100.00;60434.72;4988483;28;20479;-59
2022/08/17 01:36:06;;;;;;;7.80;7.10;;;;;;;-148.82;100.00;60434.72;4985731;28;20223;-61
2022/08/17 01:38:37;;;;;;;7.93;7.33;;;;;;;-148.82;100.00;60434.72;4921266;28;20279;-60
2022/08/17 01:41:10;;;;;;;7.67;6.90;;;;;;;-148.82;100.00;60434.72;4986076;28;20283;-65
2022/08/17 01:43:42;;;;;;;7.53;6.93;;;;;;;-148.82;100.00;60434.72;4988185;28;20805;-60
2022/08/17 01:46:15;;;;;;;7.47;6.80;;;;;;;-148.82;100.00;60434.72;4987231;28;20368;-60
2022/08/17 01:49:21;;;;;;;7.23;6.80;;;;;;;-148.82;100.00;60434.72;4970837;28;21099;-62
2022/08/17 01:51:49;;;;;;;7.80;7.20;;;;;;;-148.82;100.00;60434.72;4985848;28;20306;-64
2022/08/17 01:54:20;;;;;;;7.57;6.97;;;;;;;-148.82;100.00;60434.72;4932217;28;20271;-58
2022/08/17 01:56:51;;;;;;;7.63;6.97;;;;;;;-148.82;100.00;60434.72;4986435;28;20291;-64
2022/08/17 01:59:20;;;;;;;8.13;7.43;;;;;;;-148.82;100.00;60434.72;4987488;28;20213;-63
2022/08/17 02:01:48;;;;;;;7.83;7.23;;;;;;;-148.82;100.00;60434.72;4988357;28;20734;-63
2022/08/17 02:04:16;;;;;;;7.37;6.93;;;;;;;-148.82;100.00;60434.72;4992666;28;20224;-63
2022/08/17 02:06:44;;;;;;;8.20;7.50;;;;;;;-148.82;100.00;60434.72;4985015;28;20237;-62
2022/08/17 02:09:23;;;;;;;7.37;6.87;;;;;;;-148.82;100.00;60434.72;4931726;28;20216;-60
2022/08/17 02:11:53;;;;;;;7.83;7.30;;;;;;;-148.82;100.00;60434.72;4987249;28;20288;-64
2022/08/17 02:14:23;;;;;;;7.90;7.00;;;;;;;-148.82;100.00;60434.72;4985234;28;20209;-61
2022/08/17 02:16:52;;;;;;;7.70;6.93;;;;;;;-148.82;100.00;60434.72;4988214;28;20233;-63
2022/08/17 02:19:21;;;;;;;7.50;6.93;;;;;;;-148.82;100.00;60434.72;4981173;28;20594;-59
2022/08/17 02:21:54;;;;;;;7.40;7.00;;;;;;;-148.82;100.00;60434.72;4992168;28;20216;-64
2022/08/17 02:24:27;;;;;;;8.47;7.60;;;;;;;-148.82;100.00;60434.72;4932540;28;20514;-60
2022/08/17 02:27:16;;;;;;;7.93;7.23;;;;;;;-148.82;100.00;60434.72;4984021;28;20674;-57
2022/08/17 02:29:44;;;;;;;7.13;6.73;;;;;;;-148.82;100.00;60434.72;4986897;28;20316;-63
2022/08/17 02:32:17;;;;;;;8.13;7.30;;;;;;;-148.82;100.00;60434.72;4986364;28;20752;-58
2022/08/17 02:34:55;;;;;;;8.07;7.57;;;;;;;-148.82;100.00;60434.72;4988082;28;20449;-61
2022/08/17 02:37:23;;;;;;;9.03;7.57;;;;;;;-148.82;100.00;60434.72;4985323;28;20275;-58
2022/08/17 02:39:55;;;;;;;8.80;7.33;;;;;;;-148.82;100.00;60434.72;4939086;28;20642;-64
2022/08/17 02:42:27;;;;;;;7.80;7.10;;;;;;;-148.82;100.00;60434.72;4981148;28;20237;-59
2022/08/17 02:44:55;;;;;;;7.70;7.03;;;;;;;-148.82;100.00;60434.72;4986225;28;20224;-61
2022/08/17 02:47:25;;;;;;;8.03;7.33;;;;;;;-148.82;100.00;60434.72;4986544;28;20224;-57
2022/08/17 02:49:54;;;;;;;8.03;7.47;;;;;;;-148.82;100.00;60434.72;4981896;28;20360;-62
2022/08/17 02:52:24;;;;;;;7.50;6.80;;;;;;;-148.82;100.00;60434.72;4986703;28;20697;-58
2022/08/17 02:55:14;;;;;;;8.30;7.60;;;;;;;-148.82;100.00;60434.72;4933867;28;20709;-59
2022/08/17 02:57:42;;;;;;;7.80;7.30;;;;;;;-148.82;100.00;60434.72;4978537;28;20299;-61
2022/08/17 03:00:17;;;;;;;7.90;7.30;;;;;;;-148.82;100.00;60434.72;4986459;28;20812;-58
2022/08/17 03:02:45;;;;;;;7.83;7.10;;;;;;;-148.82;100.00;60434.72;4983224;28;20414;-61
2022/08/17 03:05:16;;;;;;;7.60;7.00;;;;;;;-148.82;100.00;60434.72;4988623;28;20228;-60
2022/08/17 03:07:45;;;;;;;7.63;7.03;;;;;;;-148.82;100.00;60434.72;4987596;28;20323;-64
2022/08/17 03:10:15;;;;;;;7.80;7.10;;;;;;;-148.82;100.00;60434.72;4934989;28;20930;-61
2022/08/17 03:12:44;;;;;;;7.97;7.47;;;;;;;-148.82;100.00;60434.72;4979160;28;20997;-60
2022/08/17 03:15:14;;;;;;;7.97;7.47;;;;;;;-148.82;100.00;60434.72;4987097;28;20595;-64
2022/08/17 03:17:43;;;;;;;9.50;8.07;;;;;;;-148.82;100.00;60434.72;4987662;28;20893;-64
2022/08/17 03:20:12;;;;;;;8.17;7.47;;;;;;;-148.82;100.00;60434.72;4981910;28;20217;-60
2022/08/17 03:22:42;;;;;;;7.83;7.03;;;;;;;-148.82;100.00;60434.72;4985153;28;20259;-62
2022/08/17 03:25:27;;;;;;;8.03;7.43;;;;;;;-148.82;100.00;60434.72;4948559;28;20229;-60
2022/08/17 03:27:56;;;;;;;7.63;7.10;;;;;;;-148.82;100.00;60434.72;4983169;28;20224;-64
2022/08/17 03:30:26;;;;;;;9.87;8.00;;;;;;;-148.82;100.00;60434.72;4907448;28;20492;-63
2022/08/17 03:32:59;;;;;;;7.83;7.17;;;;;;;-148.82;100.00;60434.72;4982382;28;20251;-61
2022/08/17 03:35:30;;;;;;;8.27;7.57;;;;;;;-148.82;100.00;60434.72;4986484;28;20646;-63
2022/08/17 03:37:59;;;;;;;8.70;7.83;;;;;;;-148.82;100.00;60434.72;4942905;28;21435;-63
2022/08/17 03:40:30;;;;;;;12.63;9.67;;;;;;;-148.82;100.00;60434.72;4985864;28;20294;-60
2022/08/17 03:43:20;;;;;;;8.97;8.27;;;;;;;-148.82;100.00;60434.72;4965985;28;20213;-60
2022/08/17 03:57:21;;;;;;;8.47;7.77;;;;;;;-148.82;100.00;60434.72;4984140;28;20710;-63
2022/08/17 03:59:49;;;;;;;8.50;7.80;;;;;;;-148.82;100.00;60434.72;4909107;28;20223;-59
2022/08/17 04:02:20;;;;;;;9.73;8.93;;;;;;;-148.82;100.00;60434.72;4982442;28;20618;-64
2022/08/17 04:04:50;;;;;;;8.23;7.43;;;;;;;-148.82;100.00;60434.72;4981182;28;21055;-60
2022/08/17 04:07:19;;;;;;;8.67;7.83;;;;;;;-148.82;100.00;60434.72;4970119;28;20225;-63
2022/08/17 04:09:47;;;;;;;9.17;8.37;;;;;;;-148.82;100.00;60434.72;4982533;28;20208;-61
2022/08/17 04:12:16;;;;;;;8.40;7.80;;;;;;;-148.82;100.00;60434.72;4985649;28;20201;-64
2022/08/17 04:14:47;;;;;;;7.90;7.40;;;;;;;-148.82;100.00;60434.72;4923681;28;20205;-59
2022/08/17 04:17:22;;;;;;;9.13;8.43;;;;;;;-148.82;100.00;60434.72;4982813;28;20224;-64
2022/08/17 04:19:51;;;;;;;8.57;7.97;;;;;;;-148.82;100.00;60434.72;4984952;28;20210;-64
2022/08/17 04:22:19;;;;;;;8.20;7.70;;;;;;;-148.82;100.00;60434.72;4971341;28;20685;-64
2022/08/17 04:25:02;;;;;;;8.03;7.17;;;;;;;-148.82;100.00;60434.72;4984617;28;20445;-64
2022/08/17 04:27:31;;;;;;;9.47;8.67;;;;;;;-148.82;100.00;60434.72;4981529;28;20221;-61
2022/08/17 04:30:00;;;;;;;8.33;7.73;;;;;;;-148.82;100.00;60434.72;4954628;28;20880;-62
2022/08/17 04:32:29;;;;;;;8.47;7.77;;;;;;;-148.82;100.00;60434.72;4933651;28;20223;-58
2022/08/17 04:35:19;;;;;;;9.03;8.30;;;;;;;-148.82;100.00;60434.72;4985563;28;20275;-59
2022/08/17 04:37:47;;;;;;;8.73;8.03;;;;;;;-148.82;100.00;60434.72;4970884;28;20224;-60
2022/08/17 04:43:04;;;;;;;7.80;7.30;;;;;;;-148.82;100.00;60434.72;4981680;28;20359;-62
2022/08/17 04:45:42;;;;;;;8.87;8.17;;;;;;;-148.82;100.00;60434.72;4951744;28;20237;-59
2022/08/17 04:48:24;;;;;;;8.60;8.10;;;;;;;-148.82;100.00;60434.72;4985646;28;20229;-63
2022/08/17 04:51:05;;;;;;;8.53;7.77;;;;;;;-148.82;100.00;60434.72;4984408;28;20215;-62
2022/08/17 04:53:33;;;;;;;9.30;8.47;;;;;;;-148.82;100.00;60434.72;4968283;28;20219;-59
2022/08/17 04:56:02;;;;;;;8.87;8.27;;;;;;;-148.82;100.00;60434.72;4990854;28;20530;-63
2022/08/17 04:58:30;;;;;;;8.57;7.87;;;;;;;-148.82;100.00;60434.72;4985989;28;20241;-60
2022/08/17 05:01:00;;;;;;;8.73;7.93;;;;;;;-148.82;100.00;60434.72;4964043;28;20504;-62
2022/08/17 05:03:28;;;;;;;9.60;8.70;;;;;;;-148.82;100.00;60434.72;4932470;28;20424;-62
2022/08/17 05:05:57;;;;;;;8.43;7.67;;;;;;;-148.82;100.00;60434.72;4985498;28;20229;-62
2022/08/17 05:08:25;;;;;;;9.47;8.37;;;;;;;-148.82;100.00;60434.72;4965378;28;20232;-63
2022/08/17 05:10:53;;;;;;;14.30;9.10;;;;;;;-148.82;100.00;60434.72;4994791;28;20215;-63
2022/08/17 05:13:23;;;;;;;9.10;8.27;;;;;;;-148.82;100.00;60434.72;4981815;28;20255;-63
2022/08/17 05:15:55;;;;;;;9.93;9.13;;;;;;;-148.82;100.00;60434.72;4989433;28;20276;-63
2022/08/17 05:18:24;;;;;;;9.47;8.57;;;;;;;-148.82;100.00;60434.72;4908420;28;20233;-61
2022/08/17 05:20:53;;;;;;;9.60;8.77;;;;;;;-148.82;100.00;60434.72;4985205;28;22038;-64
2022/08/17 05:23:22;;;;;;;9.80;8.83;;;;;;;-148.82;100.00;60434.72;4962767;28;20390;-58
2022/08/17 05:25:53;;;;;;;10.07;9.17;;;;;;;-148.82;100.00;60434.72;4989235;28;20237;-61
2022/08/17 05:28:22;;;;;;;10.23;9.43;;;;;;;-148.82;100.00;60434.72;4986407;28;20630;-63
2022/08/17 05:30:55;;;;;;;9.50;8.57;;;;;;;-148.82;100.00;60434.72;4989726;28;20233;-61
2022/08/17 05:33:27;;;;;;;9.77;9.07;;;;;;;-148.82;100.00;60434.72;4909250;28;20871;-60
2022/08/17 05:35:57;;;;;;;9.93;9.13;;;;;;;-148.82;100.00;60434.72;4917772;28;20950;-64
2022/08/17 05:38:27;;;;;;;9.63;8.83;;;;;;;-148.82;100.00;60434.72;4984911;28;20229;-64
2022/08/17 05:40:56;;;;;;;10.03;9.10;;;;;;;-148.82;100.00;60434.72;4984795;28;20338;-61
2022/08/17 05:43:25;;;;;;;9.77;8.87;;;;;;;-148.82;100.00;60434.72;4987837;28;20205;-64
2022/08/17 05:45:59;;;;;;;9.20;8.57;;;;;;;-148.82;100.00;60434.72;4988920;28;20221;-65
2022/08/17 05:48:31;;;;;;;9.33;8.53;;;;;;;-148.82;100.00;60434.72;4987064;28;20725;-60
2022/08/17 05:51:29;;;;;;;9.23;8.53;;;;;;;-148.82;100.00;60434.72;4937737;28;20237;-65
2022/08/17 05:54:05;;;;;;;8.63;7.90;;;;;;;-148.82;100.00;60434.72;4949752;28;20200;-63
2022/08/17 05:56:45;;;;;;;8.03;7.40;;;;;;;-148.82;100.00;60434.72;4985583;28;20207;-64
2022/08/17 05:59:22;;;;;;;8.17;6.93;;;;;;;-148.82;100.00;60434.72;4981330;28;20255;-61
2022/08/17 06:01:56;;;;;;;7.97;7.37;;;;;;;-148.82;100.00;60434.72;4989139;28;20712;-60
2022/08/17 06:04:37;;;;;;;8.80;8.20;;;;;;;-148.82;100.00;60434.72;4985623;28;20630;-63
2022/08/17 06:07:10;;;;;;;7.87;7.27;;;;;;;-148.82;100.00;60434.72;4924676;28;20239;-64
2022/08/17 06:09:44;;;;;;;7.80;7.20;;;;;;;-148.82;100.00;60434.72;4981350;28;20879;-61
2022/08/17 06:12:22;;;;;;;7.93;7.30;;;;;;;-148.82;100.00;60434.72;4986161;28;20201;-61
2022/08/17 06:15:01;;;;;;;7.77;7.00;;;;;;;-148.82;100.00;60434.72;4988592;28;20649;-64
2022/08/17 06:17:29;;;;;;;7.37;6.63;;;;;;;-148.82;100.00;60434.72;4985830;28;20220;-61
2022/08/17 06:20:02;;;;;;;7.07;6.60;;;;;;;-148.82;100.00;60434.72;4987621;28;20197;-62
2022/08/17 06:22:34;;;;;;;10.90;8.57;;;;;;;-148.82;100.00;60434.72;4920107;28;20441;-64
2022/08/17 06:25:05;;;;;;;7.30;6.80;;;;;;;-148.82;100.00;60434.72;4984313;28;20218;-65
2022/08/17 06:27:39;;;;;;;9.80;8.10;;;;;;;-148.82;100.00;60434.72;4985567;28;20985;-64
2022/08/17 06:30:12;;;;;;;8.47;7.47;;;;;;;-148.82;100.00;60434.72;4992598;28;20244;-59
2022/08/17 06:32:42;;;;;;;7.50;6.90;;;;;;;-148.82;100.00;60434.72;4983896;28;20464;-59
2022/08/17 06:35:14;;;;;;;6.70;6.20;;;;;;;-148.82;100.00;60434.72;4986773;28;20209;-61
2022/08/17 06:37:59;;;;;;;6.70;5.97;;;;;;;-148.82;100.00;60434.72;4918178;28;20248;-63
2022/08/17 06:40:49;;;;;;;6.20;5.70;;;;;;;-148.82;100.00;60434.72;4981499;28;20208;-63
2022/08/17 06:43:31;;;;;;;6.60;6.20;;;;;;;-148.82;100.00;60434.72;4985318;28;20329;-61
2022/08/17 06:46:05;;;;;;;6.67;6.07;;;;;;;-148.82;100.00;60434.72;4987472;28;20239;-64
2022/08/17 06:48:40;;;;;;;8.97;6.37;;;;;;;-148.82;100.00;60434.72;4985987;28;20609;-64
2022/08/17 06:51:17;;;;;;;6.07;5.40;;;;;;;-148.82;100.00;60434.72;4982389;28;20219;-60
2022/08/17 06:53:48;;;;;;;6.40;6.00;;;;;;;-148.82;100.00;60434.72;4935292;28;20223;-64
2022/08/17 06:56:23;;;;;;;6.90;6.37;;;;;;;-148.82;100.00;60434.72;4980205;28;20564;-60
2022/08/17 06:59:18;;;;;;;5.70;5.20;;;;;;;-148.82;100.00;60434.72;4986062;28;20259;-60
2022/08/17 07:01:47;;;;;;;7.13;6.43;;;;;;;-148.82;100.00;60434.72;4988801;28;20200;-64
2022/08/17 07:04:20;;;;;;;6.10;5.70;;;;;;;-148.82;100.00;60434.72;4989036;28;20201;-61
2022/08/17 07:06:52;;;;;;;7.07;5.90;;;;;;;-148.82;100.00;60434.72;4989590;28;20701;-62
2022/08/17 07:09:26;;;;;;;6.30;5.90;;;;;;;-148.82;100.00;60434.72;4920319;28;20213;-61
2022/08/17 07:11:58;;;;;;;6.60;5.57;;;;;;;-148.82;100.00;60434.72;4983657;28;20224;-63
2022/08/17 07:14:39;;;;;;;6.10;5.70;;;;;;;-148.82;100.00;60434.72;4986956;28;20285;-64
2022/08/17 07:17:10;;;;;;;5.97;5.57;;;;;;;-148.82;100.00;60434.72;4989479;28;20283;-63
2022/08/17 07:19:41;;;;;;;6.10;5.50;;;;;;;-148.82;100.00;60434.72;4982744;28;20314;-62
2022/08/17 07:22:18;;;;;;;5.63;5.10;;;;;;;-148.82;100.00;60434.72;4984391;28;20209;-57
2022/08/17 07:24:49;;;;;;;6.10;5.53;;;;;;;-148.82;100.00;60434.72;4938926;28;20221;-64
2022/08/17 07:27:20;;;;;;;5.70;5.20;;;;;;;-148.82;100.00;60434.72;4981612;28;20751;-59
2022/08/17 07:29:52;;;;;;;7.03;5.77;;;;;;;-148.82;100.00;60434.72;4985763;28;20259;-63
2022/08/17 07:32:25;;;;;;;5.70;5.33;;;;;;;-148.82;100.00;60434.72;4985088;28;20206;-59
2022/08/17 07:35:09;;;;;;;5.00;4.70;;;;;;;-148.82;100.00;60434.72;4987728;28;20308;-63
2022/08/17 07:37:41;;;;;;;6.03;5.57;;;;;;;-148.82;100.00;60434.72;4985809;28;20570;-63
2022/08/17 07:40:16;;;;;;;5.30;4.77;;;;;;;-148.82;100.00;60434.72;4938593;28;20217;-61
2022/08/17 07:43:04;;;;;;;4.90;4.50;;;;;;;-148.82;100.00;60434.72;4933669;28;21716;-58
2022/08/17 07:48:21;;;;;;;5.17;4.70;;;;;;;-148.82;100.00;60434.72;4967038;28;20221;-59
2022/08/17 07:50:52;;;;;;;5.83;5.23;;;;;;;-148.82;100.00;60434.72;4989001;28;20212;-65
2022/08/17 07:53:24;;;;;;;5.73;5.27;;;;;;;-148.82;100.00;60434.72;4990510;28;20220;-61
2022/08/17 07:55:53;;;;;;;5.50;5.10;;;;;;;-148.82;100.00;60434.72;4987697;28;20255;-64
2022/08/17 07:58:23;;;;;;;5.40;4.90;;;;;;;-148.82;100.00;60434.72;4936341;28;21129;-59
2022/08/17 08:01:06;;;;;;;7.07;4.67;;;;;;;-148.82;100.00;60434.72;4988206;28;20216;-63
2022/08/17 08:03:41;;;;;;;5.13;4.73;;;;;;;-148.82;100.00;60434.72;4983466;28;20513;-64
2022/08/17 08:06:20;;;;;;;4.47;4.17;;;;;;;-148.82;100.00;60434.72;4964374;28;20239;-60
2022/08/17 08:08:54;;;;;;;4.33;4.13;;;;;;;-148.82;100.00;60434.72;4989289;28;20251;-63
2022/08/17 08:11:33;;;;;;;4.77;4.47;;;;;;;-148.82;100.00;60434.72;4986208;28;20350;-61
2022/08/17 08:14:17;;;;;;;5.80;4.50;;;;;;;-148.82;100.00;60434.72;4942027;28;20213;-60
2022/08/17 08:16:57;;;;;;;4.87;4.37;;;;;;;-148.82;100.00;60434.72;4987659;28;20212;-63
2022/08/17 08:19:26;;;;;;;4.53;4.33;;;;;;;-148.82;100.00;60434.72;4968584;28;20221;-62
2022/08/17 08:22:00;;;;;;;5.17;4.67;;;;;;;-148.82;100.00;60434.72;4986934;28;20205;-64
2022/08/17 08:24:45;;;;;;;4.43;4.23;;;;;;;-148.82;100.00;60434.72;4978935;28;20887;-64
2022/08/17 08:27:20;;;;;;;4.73;4.43;;;;;;;-148.82;100.00;60434.72;4981223;28;20710;-61
2022/08/17 08:29:53;;;;;;;4.47;4.20;;;;;;;-148.82;100.00;60434.72;4941076;28;20217;-62
2022/08/17 08:32:33;;;;;;;4.73;4.50;;;;;;;-148.82;100.00;60434.72;4981385;28;20518;-63
2022/08/17 08:35:05;;;;;;;4.60;4.40;;;;;;;-148.82;100.00;60434.72;4983545;28;20464;-60
2022/08/17 08:37:43;;;;;;;5.20;4.63;;;;;;;-148.82;100.00;60434.72;4971872;28;20330;-62
2022/08/17 08:40:26;;;;;;;5.60;4.93;;;;;;;-148.82;100.00;60434.72;4989962;28;20208;-58
2022/08/17 08:43:03;;;;;;;5.10;4.40;;;;;;;-148.82;100.00;60434.72;4988210;28;20436;-61
2022/08/17 08:45:38;;;;;;;4.60;4.30;;;;;;;-148.82;100.00;60434.72;4938554;28;20796;-64
2022/08/17 08:48:15;;;;;;;4.30;4.00;;;;;;;-148.82;100.00;60434.72;4983696;28;20768;-60
2022/08/17 08:51:09;;;;;;;5.40;4.00;;;;;;;-148.82;100.00;60434.72;4985072;28;20291;-61
2022/08/17 08:53:45;;;;;;;4.00;3.80;;;;;;;-148.82;100.00;60434.72;4978502;28;20831;-64
2022/08/17 08:56:25;;;;;;;6.93;3.90;;;;;;;-148.82;100.00;60434.72;4987623;28;20210;-61
2022/08/17 08:59:00;;;;;;;4.17;3.87;;;;;;;-148.82;100.00;60434.72;4988293;28;20205;-62
2022/08/17 09:01:34;;;;;;;4.67;3.67;;;;;;;-148.82;100.00;60434.72;4937665;28;20454;-63
2022/08/17 09:04:20;;;;;;;4.10;3.80;;;;;;;-148.82;100.00;60434.72;4985767;28;20369;-60
2022/08/17 09:07:00;;;;;;;4.23;3.87;;;;;;;-148.82;100.00;60434.72;4968299;28;20236;-62
2022/08/17 09:09:36;;;;;;;4.33;3.77;;;;;;;-148.82;100.00;60434.72;4981966;28;20205;-64
2022/08/17 09:12:12;;;;;;;3.63;3.43;;;;;;;-148.82;100.00;60434.72;4984887;28;20255;-61
2022/08/17 09:14:44;;;;;;;3.97;3.77;;;;;;;-148.82;100.00;60434.72;4983714;28;20205;-64
2022/08/17 09:17:17;;;;;;;3.80;3.50;;;;;;;-148.82;100.00;60434.72;4936790;28;20566;-60
2022/08/17 09:19:49;;;;;;;4.23;3.93;;;;;;;-148.82;100.00;60434.72;4984714;28;20221;-64
2022/08/17 09:22:29;;;;;;;3.70;3.50;;;;;;;-148.82;100.00;60434.72;4965242;28;20914;-59
2022/08/17 09:25:02;;;;;;;8.33;3.93;;;;;;;-148.82;100.00;60434.72;4985927;28;20213;-63
2022/08/17 09:27:34;;;;;;;4.57;3.37;;;;;;;-148.82;100.00;60434.72;4983622;28;20234;-62
2022/08/17 09:30:07;;;;;;;3.93;3.60;;;;;;;-148.82;100.00;60434.72;4988582;28;20338;-59
2022/08/17 09:32:38;;;;;;;3.00;2.90;;;;;;;-148.82;100.00;60434.72;4938098;28;20242;-62
2022/08/17 09:35:13;;;;;;;4.03;3.00;;;;;;;-148.82;100.00;60434.72;4985817;28;20305;-62
2022/08/17 09:37:50;;;;;;;3.27;3.00;;;;;;;-148.82;100.00;60434.72;4967316;28;20230;-62
2022/08/17 09:40:23;;;;;;;3.60;3.30;;;;;;;-148.82;100.00;60434.72;4985286;28;20436;-59
2022/08/17 09:42:58;;;;;;;3.87;3.53;;;;;;;-148.82;100.00;60434.72;4989694;28;20213;-64
2022/08/17 09:45:32;;;;;;;3.50;3.20;;;;;;;-148.82;100.00;60434.72;4984507;28;20641;-61
2022/08/17 09:48:03;;;;;;;3.53;3.33;;;;;;;-148.82;100.00;60434.72;4943131;28;20231;-64
2022/08/17 09:50:36;;;;;;;3.27;2.77;;;;;;;-148.82;100.00;60434.72;4921273;28;20460;-57
2022/08/17 09:53:25;;;;;;;3.30;3.10;;;;;;;-148.82;100.00;60434.72;4987891;28;20588;-60
2022/08/17 09:56:04;;;;;;;3.33;3.10;;;;;;;-148.82;100.00;60434.72;4985587;28;20321;-62
2022/08/17 09:58:40;;;;;;;3.93;3.53;;;;;;;-148.82;100.00;60434.72;4972140;28;20286;-59
2022/08/17 10:01:19;;;;;;;3.30;2.97;;;;;;;-148.82;100.00;60434.72;4991923;28;20211;-62
2022/08/17 10:04:05;;;;;;;4.10;3.27;;;;;;;-148.82;100.00;60434.72;4985275;28;21096;-63
2022/08/17 10:06:37;;;;;;;4.83;3.10;;;;;;;-148.82;100.00;60434.72;4936234;28;20709;-59
2022/08/17 10:09:09;;;;;;;3.43;3.23;;;;;;;-148.82;100.00;60434.72;4988804;28;20238;-62
2022/08/17 10:14:34;;;;;;;3.20;3.00;;;;;;;-148.82;100.00;60434.72;4971630;28;20414;-62
2022/08/17 10:17:15;;;;;;;2.90;2.70;;;;;;;-148.82;100.00;60434.72;4985752;28;20239;-61
2022/08/17 10:19:48;;;;;;;3.63;3.33;;;;;;;-148.82;100.00;60434.72;4938241;28;20705;-62
2022/08/17 10:28:20;;;;;;;3.63;3.30;;;;;;;-148.82;100.00;60434.72;4970355;28;20346;-61
2022/08/17 10:31:00;;;;;;;4.57;3.57;;;;;;;-148.82;100.00;60434.72;4982904;28;20323;-61
2022/08/17 10:34:12;;;;;;;2.80;2.70;;;;;;;-148.82;100.00;60434.72;4983252;28;20465;-64
2022/08/17 10:36:48;;;;;;;3.73;3.43;;;;;;;-148.82;100.00;60434.72;4933729;28;20585;-59
2022/08/17 10:39:25;;;;;;;3.33;2.87;;;;;;;-148.82;100.00;60434.72;4984930;28;20208;-62
2022/08/17 10:41:57;;;;;;;3.33;3.10;;;;;;;-148.82;100.00;60434.72;4987850;28;20242;-62
2022/08/17 10:44:34;;;;;;;3.60;3.00;;;;;;;-148.82;100.00;60434.72;4972075;28;20710;-61
2022/08/17 10:47:11;;;;;;;3.30;3.10;;;;;;;-148.82;100.00;60434.72;4989980;28;20235;-64
2022/08/17 10:49:48;;;;;;;3.73;3.07;;;;;;;-148.82;100.00;60434.72;4982156;28;20219;-59
2022/08/17 10:52:47;;;;;;;2.90;2.80;;;;;;;-148.82;100.00;60434.72;4934040;28;20251;-61
2022/08/17 10:55:17;;;;;;;3.23;3.10;;;;;;;-148.82;100.00;60434.72;4988420;28;20228;-64
2022/08/17 10:57:48;;;;;;;3.97;3.57;;;;;;;-148.82;100.00;60434.72;4986035;28;20486;-64
2022/08/17 11:01:11;;;;;;;3.23;3.03;;;;;;;-148.82;100.00;60434.72;4969944;28;20594;-63
2022/08/17 11:03:53;;;;;;;3.00;2.80;;;;;;;-148.82;100.00;60434.72;4987378;28;20698;-59
2022/08/17 11:06:52;;;;;;;4.07;3.13;;;;;;;-148.82;100.00;60434.72;4985914;28;20293;-62
2022/08/17 11:09:28;;;;;;;3.40;3.20;;;;;;;-148.82;100.00;60434.72;4984187;28;20233;-63
2022/08/17 11:12:06;;;;;;;3.37;3.07;;;;;;;-148.82;100.00;60434.72;4981835;28;20329;-63
2022/08/17 11:15:05;;;;;;;3.90;2.90;;;;;;;-148.82;100.00;60434.72;4967046;28;20220;-61
2022/08/17 11:17:49;;;;;;;4.00;3.03;;;;;;;-148.82;100.00;60434.72;4990548;28;20233;-59
2022/08/17 11:20:36;;;;;;;3.07;2.87;;;;;;;-148.82;100.00;60434.72;4986077;28;20209;-59
2022/08/17 11:23:34;;;;;;;3.07;2.90;;;;;;;-148.82;100.00;60434.72;4939873;28;20612;-64
2022/08/17 11:26:07;;;;;;;3.40;3.10;;;;;;;-148.82;100.00;60434.72;4984694;28;20221;-64
2022/08/17 11:28:47;;;;;;;4.80;3.27;;;;;;;-148.82;100.00;60434.72;4981695;28;20229;-62
2022/08/17 11:31:28;;;;;;;3.73;3.33;;;;;;;-148.82;100.00;60434.72;4970987;28;20240;-62
2022/08/17 11:34:13;;;;;;;3.40;3.20;;;;;;;-148.82;100.00;60434.72;4987701;28;20693;-62
2022/08/17 11:37:02;;;;;;;3.67;3.47;;;;;;;-148.82;100.00;60434.72;4936702;28;20207;-60
2022/08/17 11:39:59;;;;;;;3.00;2.80;;;;;;;-148.82;100.00;60434.72;4984094;28;20637;-58
2022/08/17 11:42:39;;;;;;;3.40;3.10;;;;;;;-148.82;100.00;60434.72;4985251;28;20216;-60
2022/08/17 11:45:31;;;;;;;3.40;3.20;;;;;;;-148.82;100.00;60434.72;4967191;28;21327;-60
2022/08/17 11:54:05;;;;;;;3.33;3.00;;;;;;;-148.82;100.00;60434.72;4928965;28;20213;-64
2022/08/17 11:57:01;;;;;;;3.30;3.10;;;;;;;-148.82;100.00;60434.72;4945622;28;20614;-59
2022/08/17 11:59:54;;;;;;;3.20;3.00;;;;;;;-148.82;100.00;60434.72;4963073;28;21545;-63
2022/08/17 12:02:42;;;;;;;3.23;2.93;;;;;;;-148.82;100.00;60434.72;4987357;28;20212;-62
2022/08/17 12:05:35;;;;;;;3.37;3.17;;;;;;;-148.82;100.00;60434.72;4979001;28;20252;-63
2022/08/17 12:08:21;;;;;;;3.97;3.57;;;;;;;-148.82;100.00;60434.72;4981798;28;20236;-62
2022/08/17 12:10:57;;;;;;;3.30;3.10;;;;;;;-148.82;100.00;60434.72;4982209;28;20205;-58
2022/08/17 12:13:26;;;;;;;3.57;3.27;;;;;;;-148.82;100.00;60434.72;4943973;28;20736;-64
2022/08/17 12:16:03;;;;;;;3.10;2.90;;;;;;;-148.82;100.00;60434.72;4980836;28;20443;-60
2022/08/17 12:18:34;;;;;;;4.60;3.23;;;;;;;-148.82;100.00;60434.72;4972599;28;20235;-63